Time;durP1;ratioP1;P1;durP2;ratioP2;P2;SDS_P1;SDS_P2;PMS_P1;PMS_P2;Temp;Humidity;BMP_temperature;BMP_pressure;BME280_temperature;BME280_humidity;BME280_pressure;Samples;Min_cycle;Max_cycle;Signal;HPM_P1;HPM_P2
2021/07/24 00:00:41;;;;;;;10.43;9.37;;;20.80;99.90;;;;;;6157142;23;20401;-46
2021/07/24 00:03:08;;;;;;;10.30;8.30;;;20.80;99.90;;;;;;6157386;23;20472;-49
2021/07/24 00:05:34;;;;;;;9.80;8.20;;;20.80;99.90;;;;;;6157333;23;20461;-47
2021/07/24 00:08:03;;;;;;;10.13;8.40;;;20.80;99.90;;;;;;6156938;23;20485;-46
2021/07/24 00:10:29;;;;;;;10.70;8.60;;;20.80;99.90;;;;;;6157517;23;20476;-53
2021/07/24 00:12:56;;;;;;;9.57;8.47;;;20.70;99.90;;;;;;6156762;23;20416;-48
2021/07/24 00:15:23;;;;;;;9.07;7.50;;;20.70;99.90;;;;;;6157422;23;20418;-53
2021/07/24 00:17:50;;;;;;;8.67;7.77;;;20.70;99.90;;;;;;6157244;23;20441;-48
2021/07/24 00:20:16;;;;;;;12.37;8.20;;;20.60;99.90;;;;;;6157594;23;20484;-49
2021/07/24 00:22:43;;;;;;;12.17;9.10;;;20.60;99.90;;;;;;6157642;23;20434;-46
2021/07/24 00:25:12;;;;;;;13.63;8.80;;;20.60;99.90;;;;;;6157180;23;20433;-48
2021/07/24 00:27:40;;;;;;;10.60;8.30;;;20.50;99.90;;;;;;6157362;23;20445;-50
2021/07/24 00:30:08;;;;;;;8.50;7.50;;;20.50;99.90;;;;;;6156681;23;20406;-49
2021/07/24 00:32:35;;;;;;;9.60;7.70;;;20.50;99.90;;;;;;6157415;23;20781;-47
2021/07/24 00:35:02;;;;;;;10.70;8.00;;;20.50;99.90;;;;;;6157332;23;20445;-47
2021/07/24 00:37:28;;;;;;;10.10;8.07;;;20.50;99.90;;;;;;6157143;23;20406;-48
2021/07/24 00:39:55;;;;;;;13.57;8.77;;;20.40;99.90;;;;;;6157357;23;20911;-48
2021/07/24 00:42:24;;;;;;;9.63;8.50;;;20.40;99.90;;;;;;6156874;23;20472;-47
2021/07/24 00:44:53;;;;;;;10.20;7.67;;;20.40;99.90;;;;;;6156854;23;20414;-47
2021/07/24 00:47:22;;;;;;;12.57;7.73;;;20.40;99.90;;;;;;6157059;23;20446;-52
2021/07/24 00:49:49;;;;;;;10.00;7.77;;;20.30;99.90;;;;;;6157666;23;20418;-48
2021/07/24 00:52:17;;;;;;;10.00;8.97;;;20.30;99.90;;;;;;6159090;23;20460;-47
2021/07/24 00:54:43;;;;;;;8.97;8.03;;;20.30;99.90;;;;;;6158985;23;20405;-45
2021/07/24 00:57:12;;;;;;;10.27;7.77;;;20.30;99.90;;;;;;6159160;23;20471;-48
2021/07/24 00:59:40;;;;;;;11.60;8.40;;;20.30;99.90;;;;;;6158830;23;20418;-47
2021/07/24 01:02:07;;;;;;;10.50;7.70;;;20.30;99.90;;;;;;6159111;23;20416;-48
2021/07/24 01:04:35;;;;;;;9.77;7.90;;;20.30;99.90;;;;;;6159178;23;20463;-48
2021/07/24 01:07:04;;;;;;;8.73;7.90;;;20.30;99.90;;;;;;6159036;23;20445;-50
2021/07/24 01:09:33;;;;;;;10.00;7.47;;;20.30;99.90;;;;;;6159344;23;20471;-50
2021/07/24 01:12:01;;;;;;;9.30;8.40;;;20.30;99.90;;;;;;6159496;23;20428;-47
2021/07/24 01:14:29;;;;;;;11.60;8.00;;;20.30;99.90;;;;;;6158933;23;20413;-49
2021/07/24 01:16:57;;;;;;;10.17;7.83;;;20.30;99.90;;;;;;6158713;23;20748;-52
2021/07/24 01:19:24;;;;;;;9.80;8.03;;;20.30;99.90;;;;;;6158966;23;20406;-50
2021/07/24 01:21:52;;;;;;;8.87;7.70;;;20.20;99.90;;;;;;6158481;23;20484;-49
2021/07/24 01:24:18;;;;;;;11.63;8.27;;;20.30;99.90;;;;;;6159177;23;20840;-46
2021/07/24 01:26:46;;;;;;;10.37;8.83;;;20.20;99.90;;;;;;6159380;23;20441;-47
2021/07/24 01:29:15;;;;;;;13.93;8.63;;;20.20;99.90;;;;;;6159838;23;20854;-49
2021/07/24 01:31:42;;;;;;;11.77;8.60;;;20.20;99.90;;;;;;6159177;23;20422;-49
2021/07/24 01:34:08;;;;;;;16.83;8.73;;;20.20;99.90;;;;;;6159808;23;20410;-46
2021/07/24 01:36:35;;;;;;;12.00;9.40;;;20.10;99.90;;;;;;6159997;23;20437;-45
2021/07/24 01:39:04;;;;;;;10.17;9.17;;;20.10;99.90;;;;;;6159311;23;20717;-51
2021/07/24 01:41:30;;;;;;;34.43;9.87;;;20.10;99.90;;;;;;6159491;23;20428;-50
2021/07/24 01:43:57;;;;;;;12.77;9.30;;;20.00;99.90;;;;;;6158950;23;20421;-52
2021/07/24 01:46:24;;;;;;;11.17;9.00;;;20.00;99.90;;;;;;6159124;23;20441;-49
2021/07/24 01:49:04;;;;;;;11.90;9.23;;;19.90;99.90;;;;;;6159056;23;20441;-53
2021/07/24 01:54:30;;;;;;;11.10;9.80;;;19.90;99.90;;;;;;6158681;23;20440;-50
2021/07/24 01:56:58;;;;;;;11.67;9.30;;;19.80;99.90;;;;;;6159070;23;20441;-51
2021/07/24 01:59:33;;;;;;;22.30;10.60;;;19.80;99.90;;;;;;6159926;23;20758;-46
2021/07/24 02:02:00;;;;;;;13.17;10.27;;;19.80;99.90;;;;;;6159311;23;20471;-45
2021/07/24 02:04:30;;;;;;;10.97;9.53;;;19.70;99.90;;;;;;6159596;23;20409;-46
2021/07/24 02:06:57;;;;;;;12.20;10.37;;;19.70;99.90;;;;;;6160161;23;20951;-47
2021/07/24 02:09:25;;;;;;;12.57;10.50;;;19.70;99.90;;;;;;6159299;23;20735;-52
2021/07/24 02:11:52;;;;;;;16.20;11.07;;;19.70;99.90;;;;;;6159224;23;20414;-51
2021/07/24 02:14:20;;;;;;;15.13;10.67;;;19.70;99.90;;;;;;6158655;23;20405;-50
2021/07/24 02:16:47;;;;;;;12.93;11.27;;;19.60;99.90;;;;;;6159487;23;20472;-49
2021/07/24 02:19:14;;;;;;;16.07;10.90;;;19.60;99.90;;;;;;6159793;23;20425;-49
2021/07/24 02:21:43;;;;;;;13.27;9.90;;;19.60;99.90;;;;;;6158923;23;20415;-52
2021/07/24 02:24:10;;;;;;;11.97;9.90;;;19.60;99.90;;;;;;6158948;23;20469;-50
2021/07/24 02:26:43;;;;;;;13.97;11.87;;;19.50;99.90;;;;;;6159031;23;20507;-50
2021/07/24 02:29:09;;;;;;;15.93;10.70;;;19.50;99.90;;;;;;6159561;23;20408;-49
2021/07/24 02:31:36;;;;;;;13.37;11.60;;;19.50;99.90;;;;;;6159593;23;20409;-48
2021/07/24 02:34:03;;;;;;;14.30;10.13;;;19.40;99.90;;;;;;6159344;23;20733;-45
2021/07/24 02:36:30;;;;;;;13.93;10.50;;;19.40;99.90;;;;;;6159780;23;20422;-47
2021/07/24 02:38:56;;;;;;;13.00;11.60;;;19.40;99.90;;;;;;6159779;23;20410;-48
2021/07/24 02:41:23;;;;;;;14.17;11.10;;;19.40;99.90;;;;;;6159195;23;20416;-51
2021/07/24 02:43:51;;;;;;;17.43;11.17;;;19.30;99.90;;;;;;6158819;23;20484;-47
2021/07/24 02:46:19;;;;;;;17.37;12.90;;;19.40;99.90;;;;;;6159093;23;20468;-50
2021/07/24 02:48:46;;;;;;;16.60;11.90;;;19.40;99.90;;;;;;6159486;23;20472;-52
2021/07/24 02:51:13;;;;;;;14.67;11.60;;;19.40;99.90;;;;;;6158731;23;20505;-51
2021/07/24 02:53:40;;;;;;;14.93;12.43;;;19.30;99.90;;;;;;6159227;23;20460;-46
2021/07/24 02:56:07;;;;;;;14.90;12.13;;;19.30;99.90;;;;;;6158745;23;20478;-51
2021/07/24 02:58:33;;;;;;;12.90;11.43;;;19.30;99.90;;;;;;6159016;23;20418;-50
2021/07/24 03:01:06;;;;;;;15.60;11.90;;;19.20;99.90;;;;;;6159099;23;20423;-49
2021/07/24 03:03:32;;;;;;;16.93;12.60;;;19.20;99.90;;;;;;6159304;23;20413;-46
2021/07/24 03:05:59;;;;;;;15.47;13.27;;;19.20;99.90;;;;;;6159751;23;20414;-46
2021/07/24 03:08:26;;;;;;;18.10;13.43;;;19.20;99.90;;;;;;6159055;23;20453;-47
2021/07/24 03:10:52;;;;;;;17.83;14.63;;;19.20;99.90;;;;;;6159061;23;20460;-47
2021/07/24 03:13:19;;;;;;;15.03;12.17;;;19.10;99.90;;;;;;6158044;23;20757;-48
2021/07/24 03:15:46;;;;;;;14.03;12.47;;;19.20;99.90;;;;;;6159205;23;20853;-46
2021/07/24 03:18:14;;;;;;;14.83;11.80;;;19.20;99.90;;;;;;6159158;23;20402;-47
2021/07/24 03:20:41;;;;;;;19.30;12.80;;;19.20;99.90;;;;;;6158982;23;20790;-49
2021/07/24 03:23:07;;;;;;;16.27;12.17;;;19.10;99.90;;;;;;6158688;23;20512;-51
2021/07/24 03:25:34;;;;;;;23.13;13.87;;;19.20;99.90;;;;;;6159129;23;20426;-48
2021/07/24 03:28:01;;;;;;;17.23;12.87;;;19.20;99.90;;;;;;6158843;23;20441;-50
2021/07/24 03:30:27;;;;;;;16.60;12.30;;;19.20;99.90;;;;;;6158790;23;20410;-50
2021/07/24 03:32:54;;;;;;;17.47;13.40;;;19.20;99.90;;;;;;6159004;23;20468;-50
2021/07/24 03:35:22;;;;;;;17.03;12.57;;;19.10;99.90;;;;;;6159122;23;20454;-50
2021/07/24 03:37:49;;;;;;;17.37;13.70;;;19.10;99.90;;;;;;6159055;23;20406;-47
2021/07/24 03:40:16;;;;;;;19.40;12.93;;;19.10;99.90;;;;;;6159193;23;20464;-46
2021/07/24 03:42:42;;;;;;;16.83;13.00;;;19.10;99.90;;;;;;6158850;23;20413;-46
2021/07/24 03:45:10;;;;;;;22.77;13.20;;;19.10;99.90;;;;;;6159622;23;20447;-48
2021/07/24 03:47:37;;;;;;;16.30;12.10;;;19.10;99.90;;;;;;6159799;23;20509;-47
2021/07/24 03:50:04;;;;;;;17.47;13.00;;;19.10;99.90;;;;;;6159545;23;20472;-45
2021/07/24 03:52:32;;;;;;;17.37;14.90;;;19.00;99.90;;;;;;6159595;23;20488;-47
2021/07/24 03:55:02;;;;;;;16.10;13.37;;;19.00;99.90;;;;;;6159468;23;20406;-43
2021/07/24 03:57:28;;;;;;;23.30;14.50;;;19.00;99.90;;;;;;6160382;23;20456;-43
2021/07/24 03:59:55;;;;;;;19.03;14.53;;;19.00;99.90;;;;;;6160201;23;20476;-48
2021/07/24 04:02:24;;;;;;;16.20;12.30;;;19.00;99.90;;;;;;6159836;23;20468;-44
2021/07/24 04:04:52;;;;;;;17.30;13.73;;;19.00;99.90;;;;;;6159529;23;20414;-48
2021/07/24 04:07:19;;;;;;;16.67;13.90;;;19.10;99.90;;;;;;6159612;23;20438;-44
2021/07/24 04:09:47;;;;;;;19.83;14.37;;;19.00;99.90;;;;;;6159448;23;20428;-50
2021/07/24 04:12:14;;;;;;;20.43;13.37;;;19.10;99.90;;;;;;6159372;23;20868;-44
2021/07/24 04:14:41;;;;;;;18.43;12.87;;;19.10;99.90;;;;;;6159869;23;20413;-47
2021/07/24 04:17:08;;;;;;;18.83;14.77;;;19.20;99.90;;;;;;6159334;23;20417;-44
2021/07/24 04:19:35;;;;;;;14.97;13.27;;;19.10;99.90;;;;;;6159434;23;20417;-44
2021/07/24 04:22:01;;;;;;;19.80;14.00;;;19.20;99.90;;;;;;6159580;23;20702;-43
2021/07/24 04:24:28;;;;;;;18.90;13.57;;;19.20;99.90;;;;;;6159150;23;20892;-44
2021/07/24 04:26:56;;;;;;;16.83;14.40;;;19.20;99.90;;;;;;6159369;23;20788;-47
2021/07/24 04:29:23;;;;;;;16.90;12.77;;;19.30;99.90;;;;;;6159841;23;20464;-43
2021/07/24 04:31:50;;;;;;;17.33;13.60;;;19.30;99.90;;;;;;6159364;23;20445;-44
2021/07/24 04:34:18;;;;;;;19.90;14.53;;;19.30;99.90;;;;;;6159489;23;20425;-45
2021/07/24 04:36:45;;;;;;;16.63;13.63;;;19.30;99.90;;;;;;6159030;23;20872;-48
2021/07/24 04:39:14;;;;;;;21.33;12.83;;;19.40;99.90;;;;;;6159487;23;20418;-45
2021/07/24 04:41:42;;;;;;;17.80;13.67;;;19.40;99.90;;;;;;6159672;23;20881;-46
2021/07/24 04:44:10;;;;;;;18.80;13.67;;;19.50;99.90;;;;;;6159141;23;20417;-44
2021/07/24 04:46:37;;;;;;;16.50;13.70;;;19.50;99.90;;;;;;6159183;23;20750;-44
2021/07/24 04:49:03;;;;;;;16.27;13.50;;;19.50;99.90;;;;;;6159293;23;20725;-46
2021/07/24 04:51:30;;;;;;;19.30;14.30;;;19.60;99.90;;;;;;6159035;23;20687;-44
2021/07/24 04:53:58;;;;;;;16.60;14.77;;;19.60;99.90;;;;;;6159372;23;20416;-43
2021/07/24 04:56:26;;;;;;;18.77;13.37;;;19.70;99.90;;;;;;6158939;23;20464;-43
2021/07/24 04:58:53;;;;;;;21.70;13.73;;;19.70;99.90;;;;;;6159626;23;20410;-45
2021/07/24 05:01:21;;;;;;;19.93;14.70;;;19.80;99.90;;;;;;6159791;23;20479;-43
2021/07/24 05:03:49;;;;;;;20.43;14.00;;;19.80;99.90;;;;;;6159102;23;20709;-45
2021/07/24 05:06:16;;;;;;;18.70;13.80;;;19.90;99.90;;;;;;6158942;23;20418;-42
2021/07/24 05:08:43;;;;;;;19.60;13.93;;;19.90;99.90;;;;;;6159329;23;20504;-48
2021/07/24 05:11:10;;;;;;;23.53;13.67;;;20.00;99.90;;;;;;6159929;23;20464;-49
2021/07/24 05:13:36;;;;;;;17.63;13.77;;;20.10;99.90;;;;;;6160154;23;20430;-45
2021/07/24 05:16:03;;;;;;;17.43;13.90;;;20.10;99.90;;;;;;6159339;23;20414;-42
2021/07/24 05:18:31;;;;;;;23.80;13.83;;;20.10;99.90;;;;;;6158865;23;20402;-43
2021/07/24 05:20:58;;;;;;;19.23;13.67;;;20.10;99.90;;;;;;6159245;23;20402;-47
2021/07/24 05:23:24;;;;;;;19.27;15.47;;;20.20;99.90;;;;;;6158682;23;20971;-45
2021/07/24 05:25:51;;;;;;;17.43;14.73;;;20.30;99.90;;;;;;6158772;23;20422;-43
2021/07/24 05:28:18;;;;;;;20.23;14.57;;;20.30;99.90;;;;;;6159202;23;20437;-47
2021/07/24 05:30:44;;;;;;;18.90;13.57;;;20.40;99.90;;;;;;6159472;23;20476;-42
2021/07/24 05:33:11;;;;;;;17.27;13.27;;;20.40;99.90;;;;;;6158767;23;20476;-45
2021/07/24 05:35:39;;;;;;;19.07;14.40;;;20.40;99.90;;;;;;6159439;23;20421;-45
2021/07/24 05:38:05;;;;;;;18.90;13.80;;;20.50;99.90;;;;;;6160832;23;20467;-45
2021/07/24 05:40:32;;;;;;;20.90;14.57;;;20.50;99.90;;;;;;6160816;23;20421;-48
2021/07/24 05:43:02;;;;;;;19.50;14.30;;;20.60;99.90;;;;;;6160759;23;20472;-46
2021/07/24 05:45:29;;;;;;;18.20;14.60;;;20.70;99.90;;;;;;6160548;23;20414;-44
2021/07/24 05:47:55;;;;;;;19.07;14.37;;;20.70;99.90;;;;;;6160581;23;20503;-47
2021/07/24 05:50:22;;;;;;;19.23;14.47;;;20.80;99.90;;;;;;6160703;23;20410;-44
2021/07/24 05:52:50;;;;;;;17.93;14.30;;;20.80;99.90;;;;;;6160279;23;20398;-48
2021/07/24 05:55:17;;;;;;;16.73;14.23;;;20.80;99.90;;;;;;6160436;23;20402;-45
2021/07/24 05:57:44;;;;;;;15.37;13.80;;;20.90;99.90;;;;;;6160248;23;20414;-45
2021/07/24 06:00:11;;;;;;;17.60;13.80;;;21.10;99.90;;;;;;6160371;23;20476;-45
2021/07/24 06:02:38;;;;;;;17.97;14.63;;;21.10;99.90;;;;;;6160404;23;20406;-45
2021/07/24 06:05:06;;;;;;;17.70;14.23;;;21.20;99.90;;;;;;6160573;23;20406;-45
2021/07/24 06:07:33;;;;;;;17.80;13.67;;;21.30;99.90;;;;;;6160212;23;20467;-42
2021/07/24 06:10:01;;;;;;;19.00;13.97;;;21.40;99.90;;;;;;6160201;23;20433;-44
2021/07/24 06:12:27;;;;;;;17.90;15.03;;;21.40;99.90;;;;;;6160418;23;20472;-47
2021/07/24 06:14:54;;;;;;;21.10;14.43;;;21.60;99.90;;;;;;6160530;23;20413;-47
2021/07/24 06:17:21;;;;;;;17.23;13.43;;;21.60;99.90;;;;;;6160243;23;20422;-45
2021/07/24 06:19:48;;;;;;;20.37;13.00;;;21.70;99.90;;;;;;6160509;23;20465;-48
2021/07/24 06:22:14;;;;;;;20.47;14.60;;;21.80;99.90;;;;;;6159333;23;20472;-46
2021/07/24 06:24:41;;;;;;;17.73;14.27;;;21.90;99.90;;;;;;6159979;23;20422;-43
2021/07/24 06:27:09;;;;;;;17.07;13.53;;;22.00;99.90;;;;;;6159834;23;20460;-45
2021/07/24 06:29:36;;;;;;;17.13;13.30;;;22.00;99.90;;;;;;6160000;23;20748;-42
2021/07/24 06:32:03;;;;;;;15.73;12.73;;;22.20;99.90;;;;;;6160057;23;20416;-45
2021/07/24 06:34:30;;;;;;;17.50;14.13;;;22.30;99.90;;;;;;6160267;23;20429;-43
2021/07/24 06:36:57;;;;;;;17.67;15.50;;;22.30;99.90;;;;;;6159777;23;20443;-50
2021/07/24 06:39:23;;;;;;;16.73;13.60;;;22.40;99.90;;;;;;6159581;23;20406;-43
2021/07/24 06:41:51;;;;;;;19.53;13.90;;;22.50;99.90;;;;;;6159401;23;20975;-47
2021/07/24 06:44:20;;;;;;;20.70;14.07;;;22.60;99.90;;;;;;6159845;23;20406;-42
2021/07/24 06:46:47;;;;;;;14.70;12.80;;;22.80;99.90;;;;;;6159183;23;20881;-48
2021/07/24 06:49:13;;;;;;;17.10;12.60;;;22.90;99.90;;;;;;6159103;23;20797;-47
2021/07/24 06:51:40;;;;;;;15.77;12.43;;;23.00;99.90;;;;;;6159303;23;20668;-50
2021/07/24 06:54:07;;;;;;;16.13;13.57;;;23.10;99.90;;;;;;6159129;23;20409;-48
2021/07/24 06:56:33;;;;;;;17.77;13.37;;;23.30;99.90;;;;;;6159354;23;20425;-45
2021/07/24 06:59:00;;;;;;;14.93;12.50;;;23.30;99.90;;;;;;6159054;23;20733;-45
2021/07/24 07:01:28;;;;;;;16.83;13.70;;;23.40;99.90;;;;;;6159494;23;20702;-49
2021/07/24 07:03:55;;;;;;;20.40;14.70;;;23.60;99.90;;;;;;6159716;23;20410;-43
2021/07/24 07:06:21;;;;;;;14.80;13.00;;;23.70;99.90;;;;;;6159515;23;20484;-45
2021/07/24 07:08:48;;;;;;;16.73;13.17;;;23.80;99.90;;;;;;6158863;23;20500;-49
2021/07/24 07:11:14;;;;;;;18.87;14.27;;;23.90;99.90;;;;;;6159112;23;20401;-46
2021/07/24 07:13:41;;;;;;;16.40;13.47;;;24.00;99.90;;;;;;6159195;23;20484;-47
2021/07/24 07:16:09;;;;;;;16.43;12.73;;;24.10;99.90;;;;;;6159377;23;20521;-48
2021/07/24 07:18:38;;;;;;;15.57;13.90;;;24.30;99.90;;;;;;6158955;23;20453;-48
2021/07/24 07:21:04;;;;;;;18.23;14.07;;;24.50;99.90;;;;;;6159142;23;20413;-50
2021/07/24 07:23:31;;;;;;;17.03;12.77;;;24.90;99.90;;;;;;6158271;23;20442;-48
2021/07/24 07:25:58;;;;;;;15.00;11.67;;;25.80;99.90;;;;;;6159045;23;20747;-48
2021/07/24 07:28:24;;;;;;;11.73;10.53;;;27.10;99.90;;;;;;6162756;23;20441;-48
2021/07/24 07:30:51;;;;;;;13.23;11.83;;;28.50;99.90;;;;;;6160958;23;20413;-47
2021/07/24 07:33:18;;;;;;;14.00;11.90;;;29.90;97.80;;;;;;6158463;23;20456;-51
2021/07/24 07:35:45;;;;;;;14.00;11.93;;;31.30;91.80;;;;;;6156486;23;20406;-48
2021/07/24 07:38:12;;;;;;;15.90;11.60;;;32.60;81.40;;;;;;6159253;23;20730;-47
2021/07/24 07:40:39;;;;;;;15.03;13.37;;;33.70;76.00;;;;;;6159547;23;20402;-48
2021/07/24 07:43:08;;;;;;;15.20;13.80;;;34.60;69.30;;;;;;6160009;23;20406;-47
2021/07/24 07:45:36;;;;;;;14.33;12.90;;;35.40;63.90;;;;;;6160434;23;20500;-46
2021/07/24 07:48:03;;;;;;;15.50;14.00;;;36.40;59.70;;;;;;6159874;23;20452;-51
2021/07/24 07:50:30;;;;;;;14.10;12.77;;;37.30;55.70;;;;;;6160965;23;20418;-45
2021/07/24 07:52:58;;;;;;;15.07;13.53;;;38.10;53.70;;;;;;6160900;23;20406;-46
2021/07/24 07:55:25;;;;;;;15.37;12.80;;;38.60;50.80;;;;;;6161503;23;20445;-52
2021/07/24 07:57:52;;;;;;;14.60;13.30;;;38.90;48.90;;;;;;6161811;23;20409;-51
2021/07/24 08:00:19;;;;;;;14.17;12.87;;;39.00;47.50;;;;;;6159196;23;20406;-45
2021/07/24 08:02:51;;;;;;;14.33;13.00;;;39.20;47.00;;;;;;6160980;23;20421;-45
2021/07/24 08:05:18;;;;;;;14.03;12.63;;;39.50;46.50;;;;;;6160262;23;20390;-49
2021/07/24 08:07:45;;;;;;;14.07;12.57;;;39.70;44.50;;;;;;6160257;23;20440;-46
2021/07/24 08:10:13;;;;;;;14.13;12.60;;;39.90;44.50;;;;;;6160872;23;20417;-49
2021/07/24 08:12:39;;;;;;;15.60;12.93;;;40.20;43.60;;;;;;6160380;23;20746;-49
2021/07/24 08:15:07;;;;;;;15.47;14.07;;;40.20;43.10;;;;;;6160153;23;20468;-48
2021/07/24 08:17:34;;;;;;;14.20;12.90;;;40.20;43.00;;;;;;6159388;23;20405;-49
2021/07/24 08:20:00;;;;;;;14.33;12.93;;;40.30;42.30;;;;;;6159985;23;20476;-51
2021/07/24 08:22:27;;;;;;;14.63;13.33;;;40.20;42.00;;;;;;6158946;23;20442;-46
2021/07/24 08:24:54;;;;;;;13.90;12.60;;;40.10;42.30;;;;;;6159831;23;20394;-49
2021/07/24 08:27:22;;;;;;;13.93;12.27;;;40.20;42.10;;;;;;6159903;23;20421;-43
2021/07/24 08:29:48;;;;;;;16.33;14.57;;;40.10;41.90;;;;;;6159553;23;20449;-47
2021/07/24 08:32:15;;;;;;;15.73;14.23;;;40.10;42.10;;;;;;6157923;23;20410;-45
2021/07/24 08:34:41;;;;;;;16.03;14.60;;;40.00;41.90;;;;;;6159694;23;20768;-50
2021/07/24 08:37:09;;;;;;;17.97;13.80;;;40.10;41.80;;;;;;6159782;23;20476;-47
2021/07/24 08:39:36;;;;;;;14.27;12.30;;;40.20;42.00;;;;;;6159225;23;20406;-48
2021/07/24 08:42:03;;;;;;;13.87;12.57;;;40.20;41.30;;;;;;6160420;23;20501;-51
2021/07/24 08:44:35;;;;;;;14.40;13.10;;;40.30;41.00;;;;;;6159235;23;20520;-48
2021/07/24 08:47:03;;;;;;;15.60;14.10;;;40.40;40.40;;;;;;6156820;23;20390;-49
2021/07/24 08:49:30;;;;;;;13.70;12.47;;;40.40;40.30;;;;;;6157076;23;20442;-43
2021/07/24 08:51:59;;;;;;;14.23;13.00;;;40.30;40.10;;;;;;6157036;23;20689;-44
2021/07/24 08:54:26;;;;;;;14.60;13.00;;;40.20;40.00;;;;;;6156779;23;20410;-51
2021/07/24 08:56:54;;;;;;;14.87;13.37;;;40.50;39.50;;;;;;6156537;23;20406;-44
2021/07/24 08:59:21;;;;;;;17.97;14.70;;;40.40;39.30;;;;;;6156493;23;20752;-47
2021/07/24 09:01:53;;;;;;;14.37;12.50;;;40.50;39.30;;;;;;6157101;23;20417;-49
2021/07/24 09:04:23;;;;;;;15.10;12.93;;;40.40;38.70;;;;;;6156735;23;20755;-48
2021/07/24 09:06:55;;;;;;;15.10;12.63;;;40.60;39.30;;;;;;6156705;23;20417;-48
2021/07/24 09:09:22;;;;;;;14.33;12.97;;;40.50;39.40;;;;;;6156765;23;20426;-50
2021/07/24 09:11:50;;;;;;;13.23;11.97;;;40.40;39.40;;;;;;6163997;23;20413;-48
2021/07/24 09:14:17;;;;;;;14.47;13.07;;;40.60;38.70;;;;;;6176861;23;20416;-47
2021/07/24 09:16:45;;;;;;;17.83;12.57;;;40.80;38.50;;;;;;6176638;23;20406;-48
2021/07/24 09:19:14;;;;;;;14.30;12.80;;;40.80;39.00;;;;;;6180903;23;20948;-51
2021/07/24 09:21:40;;;;;;;14.77;13.27;;;40.80;39.10;;;;;;6174385;23;20398;-49
2021/07/24 09:24:18;;;;;;;13.60;12.30;;;40.80;38.20;;;;;;6158023;23;20498;-49
2021/07/24 09:26:45;;;;;;;15.80;13.87;;;41.20;38.90;;;;;;6158628;23;20417;-49
2021/07/24 09:29:14;;;;;;;13.90;12.50;;;41.20;38.20;;;;;;6158282;23;20472;-43
2021/07/24 09:31:41;;;;;;;15.53;14.03;;;41.10;38.00;;;;;;6158865;23;20405;-45
2021/07/24 09:34:08;;;;;;;18.60;13.90;;;41.10;37.20;;;;;;6158434;23;20413;-46
2021/07/24 09:36:37;;;;;;;15.47;13.63;;;40.80;38.60;;;;;;6158737;23;20480;-45
2021/07/24 09:39:09;;;;;;;16.30;13.37;;;40.80;37.70;;;;;;6158473;23;20397;-51
2021/07/24 09:41:35;;;;;;;13.43;12.13;;;40.60;38.70;;;;;;6179553;23;20420;-49
2021/07/24 09:44:02;;;;;;;13.43;12.03;;;40.80;37.40;;;;;;6161528;23;20421;-48
2021/07/24 09:46:29;;;;;;;13.90;12.53;;;40.80;36.90;;;;;;6158561;23;20869;-48
2021/07/24 09:48:56;;;;;;;15.13;13.60;;;40.70;38.00;;;;;;6157948;23;20452;-45
2021/07/24 09:51:33;;;;;;;15.10;13.60;;;40.70;38.30;;;;;;6157803;23;20453;-43
2021/07/24 09:54:01;;;;;;;14.93;13.30;;;40.70;38.30;;;;;;6157067;23;20853;-48
2021/07/24 09:56:39;;;;;;;14.00;12.53;;;40.80;37.40;;;;;;6156537;23;20423;-44
2021/07/24 09:59:17;;;;;;;13.43;12.17;;;40.90;36.70;;;;;;6158157;23;20398;-47
2021/07/24 10:01:44;;;;;;;14.27;12.97;;;40.70;37.60;;;;;;6157327;23;20441;-48
2021/07/24 10:04:11;;;;;;;18.03;13.50;;;40.60;36.80;;;;;;6157166;23;20410;-48
2021/07/24 10:06:42;;;;;;;15.50;12.90;;;40.50;37.50;;;;;;6158059;23;20473;-51
2021/07/24 10:09:11;;;;;;;14.60;12.00;;;40.30;37.40;;;;;;6157860;23;20496;-49
2021/07/24 10:11:38;;;;;;;13.77;12.47;;;40.40;37.70;;;;;;6157394;23;20405;-49
2021/07/24 10:14:05;;;;;;;13.00;11.73;;;40.30;36.80;;;;;;6157369;23;20414;-45
2021/07/24 10:16:32;;;;;;;14.67;13.17;;;40.20;37.00;;;;;;6157325;23;20416;-43
2021/07/24 10:18:59;;;;;;;11.87;10.77;;;40.10;36.90;;;;;;6156991;23;20401;-51
2021/07/24 10:21:26;;;;;;;13.50;12.20;;;39.80;37.00;;;;;;6178147;23;20406;-44
2021/07/24 10:23:53;;;;;;;15.43;13.97;;;39.60;37.20;;;;;;6183852;23;20430;-45
2021/07/24 10:26:28;;;;;;;14.83;12.97;;;39.40;37.70;;;;;;6184421;23;20412;-48
2021/07/24 10:29:00;;;;;;;13.93;12.63;;;39.40;37.90;;;;;;6184448;23;20445;-45
2021/07/24 10:31:33;;;;;;;15.50;13.10;;;39.20;38.90;;;;;;6184910;23;20381;-51
2021/07/24 10:34:05;;;;;;;14.57;12.70;;;39.10;39.30;;;;;;6183587;23;20401;-48
2021/07/24 10:36:35;;;;;;;15.43;13.97;;;38.80;38.90;;;;;;6183554;23;20413;-45
2021/07/24 10:39:04;;;;;;;15.80;12.63;;;38.80;39.30;;;;;;6183325;23;20461;-48
2021/07/24 10:41:51;;;;;;;15.77;14.07;;;38.40;39.80;;;;;;6183608;23;20400;-48
2021/07/24 10:44:33;;;;;;;13.60;12.23;;;38.20;40.40;;;;;;6182942;23;20378;-46
2021/07/24 10:47:10;;;;;;;13.97;12.67;;;38.00;40.40;;;;;;6182863;23;20398;-45
2021/07/24 10:49:57;;;;;;;13.83;12.47;;;37.40;42.10;;;;;;6182816;23;20500;-49
2021/07/24 10:52:24;;;;;;;16.00;14.17;;;37.10;42.40;;;;;;6176805;23;20429;-45
2021/07/24 10:55:15;;;;;;;16.63;12.97;;;36.80;42.40;;;;;;6157244;23;20426;-49
2021/07/24 10:58:08;;;;;;;15.17;12.33;;;36.60;42.90;;;;;;6157332;23;20481;-44
2021/07/24 11:00:40;;;;;;;14.63;13.13;;;36.30;43.30;;;;;;6157221;23;20406;-46
2021/07/24 11:03:48;;;;;;;13.40;12.10;;;36.20;42.40;;;;;;6157116;23;20473;-45
2021/07/24 11:06:30;;;;;;;15.67;12.17;;;35.90;42.90;;;;;;6157004;23;20457;-48
2021/07/24 11:09:20;;;;;;;16.07;13.17;;;35.70;44.00;;;;;;6156873;23;20749;-46
2021/07/24 11:12:06;;;;;;;15.90;11.83;;;35.50;44.10;;;;;;6157467;23;20476;-48
2021/07/24 11:15:00;;;;;;;43.07;15.70;;;35.40;44.30;;;;;;6157092;23;20413;-44
2021/07/24 11:17:28;;;;;;;15.90;13.20;;;35.20;43.80;;;;;;6157760;23;20394;-46
2021/07/24 11:20:34;;;;;;;13.77;12.23;;;35.30;45.00;;;;;;6157316;23;20891;-46
2021/07/24 11:23:06;;;;;;;14.57;12.83;;;35.00;44.00;;;;;;6157348;23;20515;-45
2021/07/24 11:25:38;;;;;;;13.40;12.00;;;34.90;45.30;;;;;;6157741;23;20445;-47
2021/07/24 11:28:05;;;;;;;13.97;12.57;;;34.70;44.20;;;;;;6157591;23;20401;-48
2021/07/24 11:30:33;;;;;;;14.27;12.03;;;34.50;45.40;;;;;;6157231;23;20449;-46
2021/07/24 11:33:00;;;;;;;13.20;11.90;;;34.40;46.10;;;;;;6157014;23;20477;-48
2021/07/24 11:35:30;;;;;;;14.47;12.07;;;34.40;45.60;;;;;;6156847;23;20476;-44
2021/07/24 11:37:58;;;;;;;15.53;12.03;;;34.50;45.60;;;;;;6157777;23;20460;-48
2021/07/24 11:40:27;;;;;;;12.47;11.17;;;34.30;46.20;;;;;;6157076;23;20512;-49
2021/07/24 11:42:59;;;;;;;12.33;11.13;;;34.20;46.70;;;;;;6157160;23;20522;-48
2021/07/24 11:45:27;;;;;;;16.23;11.77;;;34.20;45.60;;;;;;6157420;23;20460;-50
2021/07/24 11:48:12;;;;;;;17.70;11.33;;;34.20;45.70;;;;;;6156579;23;20961;-46
2021/07/24 11:50:39;;;;;;;12.57;11.27;;;34.20;45.40;;;;;;6156754;23;20730;-46
2021/07/24 11:53:06;;;;;;;16.40;12.43;;;34.10;46.20;;;;;;6157337;23;20406;-46
2021/07/24 11:55:34;;;;;;;15.63;11.10;;;34.10;46.70;;;;;;6157196;23;20402;-48
2021/07/24 11:58:02;;;;;;;12.37;11.07;;;34.10;46.10;;;;;;6157203;23;20884;-46
2021/07/24 12:00:33;;;;;;;12.70;11.40;;;34.00;45.20;;;;;;6157226;23;20508;-51
2021/07/24 12:03:19;;;;;;;14.30;12.10;;;34.00;45.70;;;;;;6156740;23;20809;-46
2021/07/24 12:05:47;;;;;;;12.80;10.50;;;33.90;45.10;;;;;;6157135;23;20400;-45
2021/07/24 12:08:14;;;;;;;14.00;12.33;;;33.80;45.30;;;;;;6156630;23;20429;-44
2021/07/24 12:10:43;;;;;;;14.00;11.53;;;33.60;45.50;;;;;;6156984;23;20449;-43
2021/07/24 12:13:11;;;;;;;12.10;10.80;;;33.50;46.10;;;;;;6157030;23;20503;-44
2021/07/24 12:16:03;;;;;;;11.70;10.60;;;33.30;46.10;;;;;;6156655;23;20418;-49
2021/07/24 12:18:38;;;;;;;12.33;11.07;;;33.00;46.80;;;;;;6157130;23;20849;-46
2021/07/24 12:21:12;;;;;;;17.30;10.90;;;32.90;46.60;;;;;;6157065;23;20453;-44
2021/07/24 12:23:43;;;;;;;17.17;11.60;;;32.80;47.30;;;;;;6156485;23;20421;-49
2021/07/24 12:26:13;;;;;;;14.93;11.07;;;32.80;47.50;;;;;;6156987;23;20398;-49
2021/07/24 12:28:40;;;;;;;12.10;10.87;;;32.70;48.40;;;;;;6157029;23;20746;-48
2021/07/24 12:31:17;;;;;;;11.77;10.63;;;32.70;47.40;;;;;;6156369;23;20446;-49
2021/07/24 12:33:46;;;;;;;14.73;10.73;;;32.80;47.30;;;;;;6156890;23;20749;-48
2021/07/24 12:36:13;;;;;;;13.10;11.67;;;32.80;47.80;;;;;;6156942;23;20409;-49
2021/07/24 12:38:40;;;;;;;14.20;11.80;;;32.80;47.50;;;;;;6156920;23;20433;-49